sensor_id;sensor_type;location;lat;lon;timestamp;temperature;humidity
31783;DHT22;18351;47.560;9.708;2023-08-06T00:01:49;15.50;99.90
31783;DHT22;18351;47.560;9.708;2023-08-06T00:04:14;15.50;99.90
31783;DHT22;18351;47.560;9.708;2023-08-06T00:06:40;15.60;99.90
31783;DHT22;18351;47.560;9.708;2023-08-06T00:09:05;15.50;99.90
31783;DHT22;18351;47.560;9.708;2023-08-06T00:11:31;15.60;99.90
31783;DHT22;18351;47.560;9.708;2023-08-06T00:13:57;15.60;99.90
31783;DHT22;18351;47.560;9.708;2023-08-06T00:16:22;15.60;99.90
31783;DHT22;18351;47.560;9.708;2023-08-06T00:18:48;15.60;99.90
31783;DHT22;18351;47.560;9.708;2023-08-06T00:21:13;15.60;99.90
31783;DHT22;18351;47.560;9.708;2023-08-06T00:23:40;15.60;99.90
31783;DHT22;18351;47.560;9.708;2023-08-06T00:26:06;15.50;99.90
31783;DHT22;18351;47.560;9.708;2023-08-06T00:28:31;15.60;99.90
31783;DHT22;18351;47.560;9.708;2023-08-06T00:30:57;15.50;99.90
31783;DHT22;18351;47.560;9.708;2023-08-06T00:33:23;15.60;99.90
31783;DHT22;18351;47.560;9.708;2023-08-06T00:35:49;15.50;99.90
31783;DHT22;18351;47.560;9.708;2023-08-06T00:38:15;15.50;99.90
31783;DHT22;18351;47.560;9.708;2023-08-06T00:40:40;15.50;99.90
31783;DHT22;18351;47.560;9.708;2023-08-06T00:43:06;15.50;99.90
31783;DHT22;18351;47.560;9.708;2023-08-06T00:45:34;15.50;99.90
31783;DHT22;18351;47.560;9.708;2023-08-06T00:48:01;15.40;99.90
31783;DHT22;18351;47.560;9.708;2023-08-06T00:50:27;15.50;99.90
31783;DHT22;18351;47.560;9.708;2023-08-06T00:52:53;15.40;99.90
31783;DHT22;18351;47.560;9.708;2023-08-06T00:55:19;15.40;99.90
31783;DHT22;18351;47.560;9.708;2023-08-06T00:57:45;15.40;99.90
31783;DHT22;18351;47.560;9.708;2023-08-06T01:00:11;15.40;99.90
31783;DHT22;18351;47.560;9.708;2023-08-06T01:02:37;15.30;99.90
31783;DHT22;18351;47.560;9.708;2023-08-06T01:05:03;15.30;99.90
31783;DHT22;18351;47.560;9.708;2023-08-06T01:13:08;15.30;99.90
31783;DHT22;18351;47.560;9.708;2023-08-06T01:15:42;15.30;99.90
31783;DHT22;18351;47.560;9.708;2023-08-06T01:18:10;15.30;99.90
31783;DHT22;18351;47.560;9.708;2023-08-06T01:20:35;15.30;99.90
31783;DHT22;18351;47.560;9.708;2023-08-06T01:23:01;15.30;99.90
31783;DHT22;18351;47.560;9.708;2023-08-06T01:25:31;15.30;99.90
31783;DHT22;18351;47.560;9.708;2023-08-06T01:28:15;15.30;99.90
31783;DHT22;18351;47.560;9.708;2023-08-06T01:30:44;15.30;99.90
31783;DHT22;18351;47.560;9.708;2023-08-06T01:33:16;15.20;99.90
31783;DHT22;18351;47.560;9.708;2023-08-06T01:35:44;15.20;99.90
31783;DHT22;18351;47.560;9.708;2023-08-06T01:38:11;15.20;99.90
31783;DHT22;18351;47.560;9.708;2023-08-06T01:40:37;15.20;99.90
31783;DHT22;18351;47.560;9.708;2023-08-06T01:43:02;15.10;99.90
31783;DHT22;18351;47.560;9.708;2023-08-06T01:45:28;15.00;99.90
31783;DHT22;18351;47.560;9.708;2023-08-06T01:47:53;14.90;99.90
31783;DHT22;18351;47.560;9.708;2023-08-06T01:50:19;14.80;99.90
31783;DHT22;18351;47.560;9.708;2023-08-06T01:52:44;14.80;99.90
31783;DHT22;18351;47.560;9.708;2023-08-06T01:55:10;14.70;99.90
31783;DHT22;18351;47.560;9.708;2023-08-06T01:57:36;14.70;99.90
31783;DHT22;18351;47.560;9.708;2023-08-06T02:00:01;14.70;99.90
31783;DHT22;18351;47.560;9.708;2023-08-06T02:02:27;14.50;99.90
31783;DHT22;18351;47.560;9.708;2023-08-06T02:04:53;14.50;99.90
31783;DHT22;18351;47.560;9.708;2023-08-06T02:07:19;14.50;99.90
31783;DHT22;18351;47.560;9.708;2023-08-06T02:09:44;14.40;99.90
31783;DHT22;18351;47.560;9.708;2023-08-06T02:12:10;14.30;99.90
31783;DHT22;18351;47.560;9.708;2023-08-06T02:14:35;14.40;99.90
31783;DHT22;18351;47.560;9.708;2023-08-06T02:17:01;14.40;99.90
31783;DHT22;18351;47.560;9.708;2023-08-06T02:19:26;14.40;99.90
31783;DHT22;18351;47.560;9.708;2023-08-06T02:21:52;14.40;99.90
31783;DHT22;18351;47.560;9.708;2023-08-06T02:24:17;14.40;99.90
31783;DHT22;18351;47.560;9.708;2023-08-06T02:26:43;14.40;99.90
31783;DHT22;18351;47.560;9.708;2023-08-06T02:29:08;14.30;99.90
31783;DHT22;18351;47.560;9.708;2023-08-06T02:31:34;14.30;99.90
31783;DHT22;18351;47.560;9.708;2023-08-06T02:33:59;14.30;99.90
31783;DHT22;18351;47.560;9.708;2023-08-06T02:36:25;14.30;99.90
31783;DHT22;18351;47.560;9.708;2023-08-06T02:38:54;14.40;99.90
31783;DHT22;18351;47.560;9.708;2023-08-06T02:41:20;14.30;99.90
31783;DHT22;18351;47.560;9.708;2023-08-06T02:43:45;14.40;99.90
31783;DHT22;18351;47.560;9.708;2023-08-06T02:46:11;14.30;99.90
31783;DHT22;18351;47.560;9.708;2023-08-06T02:48:36;14.40;99.90
31783;DHT22;18351;47.560;9.708;2023-08-06T02:51:02;14.40;99.90
31783;DHT22;18351;47.560;9.708;2023-08-06T02:53:28;14.40;99.90
31783;DHT22;18351;47.560;9.708;2023-08-06T02:55:53;14.40;99.90
31783;DHT22;18351;47.560;9.708;2023-08-06T02:58:19;14.40;99.90
31783;DHT22;18351;47.560;9.708;2023-08-06T03:01:02;14.40;99.90
31783;DHT22;18351;47.560;9.708;2023-08-06T03:03:29;14.40;99.90
31783;DHT22;18351;47.560;9.708;2023-08-06T03:05:55;14.30;99.90
31783;DHT22;18351;47.560;9.708;2023-08-06T03:08:20;14.30;99.90
31783;DHT22;18351;47.560;9.708;2023-08-06T03:10:49;14.30;99.90
31783;DHT22;18351;47.560;9.708;2023-08-06T03:13:18;14.30;99.90
31783;DHT22;18351;47.560;9.708;2023-08-06T03:15:52;14.30;99.90
31783;DHT22;18351;47.560;9.708;2023-08-06T03:18:18;14.20;99.90
31783;DHT22;18351;47.560;9.708;2023-08-06T03:20:44;14.20;99.90
31783;DHT22;18351;47.560;9.708;2023-08-06T03:23:10;14.30;99.90
31783;DHT22;18351;47.560;9.708;2023-08-06T03:25:36;14.30;99.90
31783;DHT22;18351;47.560;9.708;2023-08-06T03:28:02;14.40;99.90
31783;DHT22;18351;47.560;9.708;2023-08-06T03:30:28;14.40;99.90
31783;DHT22;18351;47.560;9.708;2023-08-06T03:32:53;14.40;99.90
31783;DHT22;18351;47.560;9.708;2023-08-06T03:35:19;14.40;99.90
31783;DHT22;18351;47.560;9.708;2023-08-06T03:37:45;14.40;99.90
31783;DHT22;18351;47.560;9.708;2023-08-06T03:40:10;14.40;99.90
31783;DHT22;18351;47.560;9.708;2023-08-06T03:42:36;14.40;99.90
31783;DHT22;18351;47.560;9.708;2023-08-06T03:45:01;14.40;99.90
31783;DHT22;18351;47.560;9.708;2023-08-06T03:47:27;14.40;99.90
31783;DHT22;18351;47.560;9.708;2023-08-06T03:49:53;14.40;99.90
31783;DHT22;18351;47.560;9.708;2023-08-06T03:52:18;14.40;99.90
31783;DHT22;18351;47.560;9.708;2023-08-06T03:54:44;14.40;99.90
31783;DHT22;18351;47.560;9.708;2023-08-06T03:57:09;14.40;99.90
31783;DHT22;18351;47.560;9.708;2023-08-06T03:59:35;14.40;99.90
31783;DHT22;18351;47.560;9.708;2023-08-06T04:02:01;14.40;99.90
31783;DHT22;18351;47.560;9.708;2023-08-06T04:04:27;14.40;99.90
31783;DHT22;18351;47.560;9.708;2023-08-06T04:06:53;14.50;99.90
31783;DHT22;18351;47.560;9.708;2023-08-06T04:09:18;14.50;99.90
31783;DHT22;18351;47.560;9.708;2023-08-06T04:11:44;14.50;99.90
31783;DHT22;18351;47.560;9.708;2023-08-06T04:14:09;14.50;99.90
31783;DHT22;18351;47.560;9.708;2023-08-06T04:16:35;14.50;99.90
31783;DHT22;18351;47.560;9.708;2023-08-06T04:19:01;14.50;99.90
31783;DHT22;18351;47.560;9.708;2023-08-06T04:21:26;14.60;99.90
31783;DHT22;18351;47.560;9.708;2023-08-06T04:23:52;14.60;99.90
31783;DHT22;18351;47.560;9.708;2023-08-06T04:26:17;14.70;99.90
31783;DHT22;18351;47.560;9.708;2023-08-06T04:28:43;14.70;99.90
31783;DHT22;18351;47.560;9.708;2023-08-06T04:31:08;14.70;99.90
31783;DHT22;18351;47.560;9.708;2023-08-06T04:33:34;14.80;99.90
31783;DHT22;18351;47.560;9.708;2023-08-06T04:35:59;14.90;99.90
31783;DHT22;18351;47.560;9.708;2023-08-06T04:38:25;15.00;99.90
31783;DHT22;18351;47.560;9.708;2023-08-06T04:40:51;15.00;99.90
31783;DHT22;18351;47.560;9.708;2023-08-06T04:43:17;15.10;99.90
31783;DHT22;18351;47.560;9.708;2023-08-06T04:45:46;15.20;99.90
31783;DHT22;18351;47.560;9.708;2023-08-06T04:48:13;15.20;99.90
31783;DHT22;18351;47.560;9.708;2023-08-06T04:50:38;15.20;99.90
31783;DHT22;18351;47.560;9.708;2023-08-06T04:53:04;15.30;99.90
31783;DHT22;18351;47.560;9.708;2023-08-06T04:55:29;15.30;99.90
31783;DHT22;18351;47.560;9.708;2023-08-06T04:57:55;15.30;99.90
31783;DHT22;18351;47.560;9.708;2023-08-06T05:00:20;15.40;99.90
31783;DHT22;18351;47.560;9.708;2023-08-06T05:02:46;15.40;99.90
31783;DHT22;18351;47.560;9.708;2023-08-06T05:05:11;15.50;99.90
31783;DHT22;18351;47.560;9.708;2023-08-06T05:07:37;15.50;99.90
31783;DHT22;18351;47.560;9.708;2023-08-06T05:10:02;15.60;99.90
31783;DHT22;18351;47.560;9.708;2023-08-06T05:12:29;15.60;99.90
31783;DHT22;18351;47.560;9.708;2023-08-06T05:14:55;15.70;99.90
31783;DHT22;18351;47.560;9.708;2023-08-06T05:17:20;15.70;99.90
31783;DHT22;18351;47.560;9.708;2023-08-06T05:19:48;15.70;99.90
31783;DHT22;18351;47.560;9.708;2023-08-06T05:22:13;15.70;99.90
31783;DHT22;18351;47.560;9.708;2023-08-06T05:24:39;15.80;99.90
31783;DHT22;18351;47.560;9.708;2023-08-06T05:27:05;15.90;99.90
31783;DHT22;18351;47.560;9.708;2023-08-06T05:29:30;15.80;99.90
31783;DHT22;18351;47.560;9.708;2023-08-06T05:31:56;15.90;99.90
31783;DHT22;18351;47.560;9.708;2023-08-06T05:34:22;15.90;99.90
31783;DHT22;18351;47.560;9.708;2023-08-06T05:36:47;15.90;99.90
31783;DHT22;18351;47.560;9.708;2023-08-06T05:39:13;15.80;99.90
31783;DHT22;18351;47.560;9.708;2023-08-06T05:41:38;15.90;99.90
31783;DHT22;18351;47.560;9.708;2023-08-06T05:44:04;15.90;99.90
31783;DHT22;18351;47.560;9.708;2023-08-06T05:46:29;15.70;99.90
31783;DHT22;18351;47.560;9.708;2023-08-06T05:48:55;15.50;99.90
31783;DHT22;18351;47.560;9.708;2023-08-06T05:51:20;15.00;99.90
31783;DHT22;18351;47.560;9.708;2023-08-06T05:53:46;14.70;99.90
31783;DHT22;18351;47.560;9.708;2023-08-06T05:56:12;14.40;99.90
31783;DHT22;18351;47.560;9.708;2023-08-06T05:58:38;14.30;99.90
31783;DHT22;18351;47.560;9.708;2023-08-06T06:01:03;14.20;99.90
31783;DHT22;18351;47.560;9.708;2023-08-06T06:03:29;14.10;99.90
31783;DHT22;18351;47.560;9.708;2023-08-06T06:05:54;14.20;99.90
31783;DHT22;18351;47.560;9.708;2023-08-06T06:08:20;14.10;99.90
31783;DHT22;18351;47.560;9.708;2023-08-06T06:10:45;14.20;99.90
31783;DHT22;18351;47.560;9.708;2023-08-06T06:13:11;14.30;99.90
31783;DHT22;18351;47.560;9.708;2023-08-06T06:15:36;14.30;99.90
31783;DHT22;18351;47.560;9.708;2023-08-06T06:18:03;14.30;99.90
31783;DHT22;18351;47.560;9.708;2023-08-06T06:20:28;14.30;99.90
31783;DHT22;18351;47.560;9.708;2023-08-06T06:22:54;14.30;99.90
31783;DHT22;18351;47.560;9.708;2023-08-06T06:25:20;14.40;99.90
31783;DHT22;18351;47.560;9.708;2023-08-06T06:27:45;14.40;99.90
31783;DHT22;18351;47.560;9.708;2023-08-06T06:30:11;14.30;99.90
31783;DHT22;18351;47.560;9.708;2023-08-06T06:32:37;14.30;99.90
31783;DHT22;18351;47.560;9.708;2023-08-06T06:35:03;14.40;99.90
31783;DHT22;18351;47.560;9.708;2023-08-06T06:37:29;14.40;99.90
31783;DHT22;18351;47.560;9.708;2023-08-06T06:39:54;14.40;99.90
31783;DHT22;18351;47.560;9.708;2023-08-06T06:42:20;14.50;99.90
31783;DHT22;18351;47.560;9.708;2023-08-06T06:44:45;14.50;99.90
31783;DHT22;18351;47.560;9.708;2023-08-06T06:47:11;14.60;99.90
31783;DHT22;18351;47.560;9.708;2023-08-06T06:49:37;14.70;99.90
31783;DHT22;18351;47.560;9.708;2023-08-06T06:52:02;14.70;99.90
31783;DHT22;18351;47.560;9.708;2023-08-06T06:54:28;14.80;99.90
31783;DHT22;18351;47.560;9.708;2023-08-06T06:56:53;14.90;99.90
31783;DHT22;18351;47.560;9.708;2023-08-06T06:59:19;15.00;99.90
31783;DHT22;18351;47.560;9.708;2023-08-06T07:01:44;15.10;99.90
31783;DHT22;18351;47.560;9.708;2023-08-06T07:04:10;15.20;99.90
31783;DHT22;18351;47.560;9.708;2023-08-06T07:06:36;15.30;99.90
31783;DHT22;18351;47.560;9.708;2023-08-06T07:09:01;15.40;99.90
31783;DHT22;18351;47.560;9.708;2023-08-06T07:11:27;15.50;99.90
31783;DHT22;18351;47.560;9.708;2023-08-06T07:13:57;15.60;99.90
31783;DHT22;18351;47.560;9.708;2023-08-06T07:16:26;15.70;99.90
31783;DHT22;18351;47.560;9.708;2023-08-06T07:18:53;15.60;99.90
31783;DHT22;18351;47.560;9.708;2023-08-06T07:21:19;15.60;99.90
31783;DHT22;18351;47.560;9.708;2023-08-06T07:23:46;15.50;99.90
31783;DHT22;18351;47.560;9.708;2023-08-06T07:26:11;15.50;99.90
31783;DHT22;18351;47.560;9.708;2023-08-06T07:28:37;15.50;99.90
31783;DHT22;18351;47.560;9.708;2023-08-06T07:31:03;15.50;99.90
31783;DHT22;18351;47.560;9.708;2023-08-06T07:33:29;15.60;99.90
31783;DHT22;18351;47.560;9.708;2023-08-06T07:35:54;15.90;99.90
31783;DHT22;18351;47.560;9.708;2023-08-06T07:38:20;16.10;99.90
31783;DHT22;18351;47.560;9.708;2023-08-06T07:40:46;16.20;99.90
31783;DHT22;18351;47.560;9.708;2023-08-06T07:43:12;16.40;99.90
31783;DHT22;18351;47.560;9.708;2023-08-06T07:45:37;16.50;99.90
31783;DHT22;18351;47.560;9.708;2023-08-06T07:48:04;16.70;99.90
31783;DHT22;18351;47.560;9.708;2023-08-06T07:50:30;16.80;99.90
31783;DHT22;18351;47.560;9.708;2023-08-06T07:52:55;16.90;99.90
31783;DHT22;18351;47.560;9.708;2023-08-06T07:55:21;16.90;99.90
31783;DHT22;18351;47.560;9.708;2023-08-06T07:57:46;17.00;99.90
31783;DHT22;18351;47.560;9.708;2023-08-06T08:00:12;16.80;99.90
31783;DHT22;18351;47.560;9.708;2023-08-06T08:02:37;16.70;99.90
31783;DHT22;18351;47.560;9.708;2023-08-06T08:05:03;16.70;99.90
31783;DHT22;18351;47.560;9.708;2023-08-06T08:07:29;16.50;99.90
31783;DHT22;18351;47.560;9.708;2023-08-06T08:09:56;16.40;99.90
31783;DHT22;18351;47.560;9.708;2023-08-06T08:12:22;16.30;99.90
31783;DHT22;18351;47.560;9.708;2023-08-06T08:14:47;16.20;99.90
31783;DHT22;18351;47.560;9.708;2023-08-06T08:17:13;16.10;99.90
31783;DHT22;18351;47.560;9.708;2023-08-06T08:19:40;16.00;99.90
31783;DHT22;18351;47.560;9.708;2023-08-06T08:22:05;16.00;99.90
31783;DHT22;18351;47.560;9.708;2023-08-06T08:24:31;16.00;99.90
31783;DHT22;18351;47.560;9.708;2023-08-06T08:26:56;16.00;99.90
31783;DHT22;18351;47.560;9.708;2023-08-06T08:29:22;16.00;99.90
31783;DHT22;18351;47.560;9.708;2023-08-06T08:31:48;15.90;99.90
31783;DHT22;18351;47.560;9.708;2023-08-06T08:34:17;15.90;99.90
31783;DHT22;18351;47.560;9.708;2023-08-06T08:36:42;15.90;99.90
31783;DHT22;18351;47.560;9.708;2023-08-06T08:39:08;15.70;99.90
31783;DHT22;18351;47.560;9.708;2023-08-06T08:41:37;15.70;99.90
31783;DHT22;18351;47.560;9.708;2023-08-06T08:44:07;15.60;99.90
31783;DHT22;18351;47.560;9.708;2023-08-06T08:46:35;15.60;99.90
31783;DHT22;18351;47.560;9.708;2023-08-06T08:49:02;15.50;99.90
31783;DHT22;18351;47.560;9.708;2023-08-06T08:51:28;15.40;99.90
31783;DHT22;18351;47.560;9.708;2023-08-06T08:53:55;15.30;99.90
31783;DHT22;18351;47.560;9.708;2023-08-06T08:56:24;15.20;99.90
31783;DHT22;18351;47.560;9.708;2023-08-06T08:58:50;15.10;99.90
31783;DHT22;18351;47.560;9.708;2023-08-06T09:01:18;15.00;99.90
31783;DHT22;18351;47.560;9.708;2023-08-06T09:03:44;15.10;99.90
31783;DHT22;18351;47.560;9.708;2023-08-06T09:06:12;15.10;99.90
31783;DHT22;18351;47.560;9.708;2023-08-06T09:08:47;15.10;99.90
31783;DHT22;18351;47.560;9.708;2023-08-06T09:11:16;15.10;99.90
31783;DHT22;18351;47.560;9.708;2023-08-06T09:13:42;15.00;99.90
31783;DHT22;18351;47.560;9.708;2023-08-06T09:16:08;15.00;99.90
31783;DHT22;18351;47.560;9.708;2023-08-06T09:18:33;15.00;99.90
31783;DHT22;18351;47.560;9.708;2023-08-06T09:20:59;14.90;99.90
31783;DHT22;18351;47.560;9.708;2023-08-06T09:23:28;14.80;99.90
31783;DHT22;18351;47.560;9.708;2023-08-06T09:25:56;14.80;99.90
31783;DHT22;18351;47.560;9.708;2023-08-06T09:28:21;14.80;99.90
31783;DHT22;18351;47.560;9.708;2023-08-06T09:30:47;14.90;99.90
31783;DHT22;18351;47.560;9.708;2023-08-06T09:33:18;15.00;99.90
31783;DHT22;18351;47.560;9.708;2023-08-06T09:35:45;15.00;99.90
31783;DHT22;18351;47.560;9.708;2023-08-06T09:38:10;15.10;99.90
31783;DHT22;18351;47.560;9.708;2023-08-06T09:40:37;15.20;99.90
31783;DHT22;18351;47.560;9.708;2023-08-06T09:43:03;15.10;99.90
31783;DHT22;18351;47.560;9.708;2023-08-06T09:45:34;15.10;99.90
31783;DHT22;18351;47.560;9.708;2023-08-06T09:48:06;15.20;99.90
31783;DHT22;18351;47.560;9.708;2023-08-06T09:50:34;15.10;99.90
31783;DHT22;18351;47.560;9.708;2023-08-06T09:53:04;15.10;99.90
31783;DHT22;18351;47.560;9.708;2023-08-06T09:55:30;15.00;99.90
31783;DHT22;18351;47.560;9.708;2023-08-06T09:57:58;14.90;99.90
31783;DHT22;18351;47.560;9.708;2023-08-06T10:00:24;14.90;99.90
31783;DHT22;18351;47.560;9.708;2023-08-06T10:02:50;14.80;99.90
31783;DHT22;18351;47.560;9.708;2023-08-06T10:05:17;14.80;99.90
31783;DHT22;18351;47.560;9.708;2023-08-06T10:07:44;14.80;99.90
31783;DHT22;18351;47.560;9.708;2023-08-06T10:10:10;14.90;99.90
31783;DHT22;18351;47.560;9.708;2023-08-06T10:12:40;14.80;99.90
31783;DHT22;18351;47.560;9.708;2023-08-06T10:15:11;14.80;99.90
31783;DHT22;18351;47.560;9.708;2023-08-06T10:17:38;14.90;99.90
31783;DHT22;18351;47.560;9.708;2023-08-06T10:20:05;15.00;99.90
31783;DHT22;18351;47.560;9.708;2023-08-06T10:22:33;15.10;99.90
31783;DHT22;18351;47.560;9.708;2023-08-06T10:25:00;15.10;99.90
31783;DHT22;18351;47.560;9.708;2023-08-06T10:27:52;15.20;99.90
31783;DHT22;18351;47.560;9.708;2023-08-06T10:32:58;15.30;99.90
31783;DHT22;18351;47.560;9.708;2023-08-06T10:38:20;15.20;99.90
31783;DHT22;18351;47.560;9.708;2023-08-06T10:43:35;15.30;99.90
31783;DHT22;18351;47.560;9.708;2023-08-06T10:46:10;15.30;99.90
31783;DHT22;18351;47.560;9.708;2023-08-06T10:48:40;15.30;99.90
31783;DHT22;18351;47.560;9.708;2023-08-06T10:51:10;15.50;99.90
31783;DHT22;18351;47.560;9.708;2023-08-06T10:53:36;15.60;99.90
31783;DHT22;18351;47.560;9.708;2023-08-06T10:56:02;15.70;99.90
31783;DHT22;18351;47.560;9.708;2023-08-06T10:58:37;15.80;99.90
31783;DHT22;18351;47.560;9.708;2023-08-06T11:01:02;15.80;99.90
31783;DHT22;18351;47.560;9.708;2023-08-06T11:03:28;15.70;99.90
31783;DHT22;18351;47.560;9.708;2023-08-06T11:05:54;15.70;99.90
31783;DHT22;18351;47.560;9.708;2023-08-06T11:08:26;15.60;99.90
31783;DHT22;18351;47.560;9.708;2023-08-06T11:10:52;15.60;99.90
31783;DHT22;18351;47.560;9.708;2023-08-06T11:13:17;15.70;99.90
31783;DHT22;18351;47.560;9.708;2023-08-06T11:15:45;15.80;99.90
31783;DHT22;18351;47.560;9.708;2023-08-06T11:18:10;15.80;99.90
31783;DHT22;18351;47.560;9.708;2023-08-06T11:20:36;16.00;99.90
31783;DHT22;18351;47.560;9.708;2023-08-06T11:23:02;16.10;99.90
31783;DHT22;18351;47.560;9.708;2023-08-06T11:25:28;16.00;99.90
31783;DHT22;18351;47.560;9.708;2023-08-06T11:27:54;15.90;99.90
31783;DHT22;18351;47.560;9.708;2023-08-06T11:30:21;15.90;99.90
31783;DHT22;18351;47.560;9.708;2023-08-06T11:32:47;15.80;99.90
31783;DHT22;18351;47.560;9.708;2023-08-06T11:35:14;15.70;99.90
31783;DHT22;18351;47.560;9.708;2023-08-06T11:37:44;15.60;99.90
31783;DHT22;18351;47.560;9.708;2023-08-06T11:40:10;15.60;99.90
31783;DHT22;18351;47.560;9.708;2023-08-06T11:42:36;15.50;99.90
31783;DHT22;18351;47.560;9.708;2023-08-06T11:45:03;15.60;99.90
31783;DHT22;18351;47.560;9.708;2023-08-06T11:47:29;15.70;99.90
31783;DHT22;18351;47.560;9.708;2023-08-06T11:49:55;15.60;99.90
31783;DHT22;18351;47.560;9.708;2023-08-06T11:52:22;15.60;99.90
31783;DHT22;18351;47.560;9.708;2023-08-06T11:55:07;15.70;99.90
31783;DHT22;18351;47.560;9.708;2023-08-06T11:57:37;15.70;99.90
31783;DHT22;18351;47.560;9.708;2023-08-06T12:00:09;15.70;99.90
31783;DHT22;18351;47.560;9.708;2023-08-06T12:02:35;15.90;99.90
31783;DHT22;18351;47.560;9.708;2023-08-06T12:07:38;16.00;99.90
31783;DHT22;18351;47.560;9.708;2023-08-06T12:10:05;16.10;99.90
31783;DHT22;18351;47.560;9.708;2023-08-06T12:12:31;16.10;99.90
31783;DHT22;18351;47.560;9.708;2023-08-06T12:14:57;16.10;99.90
31783;DHT22;18351;47.560;9.708;2023-08-06T12:17:25;16.10;99.90
31783;DHT22;18351;47.560;9.708;2023-08-06T12:19:51;16.10;99.90
31783;DHT22;18351;47.560;9.708;2023-08-06T12:22:17;16.10;99.90
31783;DHT22;18351;47.560;9.708;2023-08-06T12:24:45;16.10;99.90
31783;DHT22;18351;47.560;9.708;2023-08-06T12:27:11;15.90;99.90
31783;DHT22;18351;47.560;9.708;2023-08-06T12:29:40;15.90;99.90
31783;DHT22;18351;47.560;9.708;2023-08-06T12:32:06;16.00;99.90
31783;DHT22;18351;47.560;9.708;2023-08-06T12:34:31;15.90;99.90
31783;DHT22;18351;47.560;9.708;2023-08-06T12:36:57;16.00;99.90
31783;DHT22;18351;47.560;9.708;2023-08-06T12:39:22;16.20;99.90
31783;DHT22;18351;47.560;9.708;2023-08-06T12:41:48;16.30;99.90
31783;DHT22;18351;47.560;9.708;2023-08-06T12:44:14;16.40;99.90
31783;DHT22;18351;47.560;9.708;2023-08-06T12:46:39;16.40;99.90
31783;DHT22;18351;47.560;9.708;2023-08-06T12:49:05;16.40;99.90
31783;DHT22;18351;47.560;9.708;2023-08-06T12:51:32;16.40;99.90
31783;DHT22;18351;47.560;9.708;2023-08-06T12:53:59;16.40;99.90
31783;DHT22;18351;47.560;9.708;2023-08-06T12:56:24;16.50;99.90
31783;DHT22;18351;47.560;9.708;2023-08-06T12:58:50;16.40;99.90
31783;DHT22;18351;47.560;9.708;2023-08-06T13:01:16;16.40;99.90
31783;DHT22;18351;47.560;9.708;2023-08-06T13:03:42;16.40;99.90
31783;DHT22;18351;47.560;9.708;2023-08-06T13:06:08;16.30;99.90
31783;DHT22;18351;47.560;9.708;2023-08-06T13:08:35;16.20;99.90
31783;DHT22;18351;47.560;9.708;2023-08-06T13:11:01;16.10;99.90
31783;DHT22;18351;47.560;9.708;2023-08-06T13:13:26;16.00;99.90
31783;DHT22;18351;47.560;9.708;2023-08-06T13:15:52;16.00;99.90
31783;DHT22;18351;47.560;9.708;2023-08-06T13:18:18;16.10;99.90
31783;DHT22;18351;47.560;9.708;2023-08-06T13:20:43;16.10;99.90
31783;DHT22;18351;47.560;9.708;2023-08-06T13:23:09;16.20;99.90
31783;DHT22;18351;47.560;9.708;2023-08-06T13:25:34;16.20;99.90
31783;DHT22;18351;47.560;9.708;2023-08-06T13:28:04;16.20;99.90
31783;DHT22;18351;47.560;9.708;2023-08-06T13:30:30;16.10;99.90
31783;DHT22;18351;47.560;9.708;2023-08-06T13:32:55;16.10;99.90
31783;DHT22;18351;47.560;9.708;2023-08-06T13:35:22;16.10;99.90
31783;DHT22;18351;47.560;9.708;2023-08-06T13:37:48;16.10;99.90
31783;DHT22;18351;47.560;9.708;2023-08-06T13:40:14;16.20;99.90
31783;DHT22;18351;47.560;9.708;2023-08-06T13:42:40;16.20;99.90
31783;DHT22;18351;47.560;9.708;2023-08-06T13:45:06;16.30;99.90
31783;DHT22;18351;47.560;9.708;2023-08-06T13:47:32;16.20;99.90
31783;DHT22;18351;47.560;9.708;2023-08-06T13:49:58;16.30;99.90
31783;DHT22;18351;47.560;9.708;2023-08-06T13:52:25;16.30;99.90
31783;DHT22;18351;47.560;9.708;2023-08-06T13:54:51;16.30;99.90
31783;DHT22;18351;47.560;9.708;2023-08-06T13:57:16;16.30;99.90
31783;DHT22;18351;47.560;9.708;2023-08-06T13:59:42;16.30;99.90
31783;DHT22;18351;47.560;9.708;2023-08-06T14:02:09;16.30;99.90
31783;DHT22;18351;47.560;9.708;2023-08-06T14:04:35;16.30;99.90
31783;DHT22;18351;47.560;9.708;2023-08-06T14:07:00;16.40;99.90
31783;DHT22;18351;47.560;9.708;2023-08-06T14:09:26;16.30;99.90
31783;DHT22;18351;47.560;9.708;2023-08-06T14:11:51;16.30;99.90
31783;DHT22;18351;47.560;9.708;2023-08-06T14:14:17;16.30;99.90
31783;DHT22;18351;47.560;9.708;2023-08-06T14:16:42;16.30;99.90
31783;DHT22;18351;47.560;9.708;2023-08-06T14:19:08;16.30;99.90
31783;DHT22;18351;47.560;9.708;2023-08-06T14:21:34;16.40;99.90
31783;DHT22;18351;47.560;9.708;2023-08-06T14:23:59;16.40;99.90
31783;DHT22;18351;47.560;9.708;2023-08-06T14:26:25;16.30;99.90
31783;DHT22;18351;47.560;9.708;2023-08-06T14:28:50;16.30;99.90
31783;DHT22;18351;47.560;9.708;2023-08-06T14:31:20;16.30;99.90
31783;DHT22;18351;47.560;9.708;2023-08-06T14:33:46;16.30;99.90
31783;DHT22;18351;47.560;9.708;2023-08-06T14:36:11;16.20;99.90
31783;DHT22;18351;47.560;9.708;2023-08-06T14:38:37;16.20;99.90
31783;DHT22;18351;47.560;9.708;2023-08-06T14:41:02;16.20;99.90
31783;DHT22;18351;47.560;9.708;2023-08-06T14:43:28;16.10;99.90
31783;DHT22;18351;47.560;9.708;2023-08-06T14:45:54;16.10;99.90
31783;DHT22;18351;47.560;9.708;2023-08-06T14:48:19;16.10;99.90
31783;DHT22;18351;47.560;9.708;2023-08-06T14:50:45;16.10;99.90
31783;DHT22;18351;47.560;9.708;2023-08-06T14:53:10;16.10;99.90
31783;DHT22;18351;47.560;9.708;2023-08-06T14:55:37;16.10;99.90
31783;DHT22;18351;47.560;9.708;2023-08-06T14:58:02;16.20;99.90
31783;DHT22;18351;47.560;9.708;2023-08-06T15:00:28;16.20;99.90
31783;DHT22;18351;47.560;9.708;2023-08-06T15:02:54;16.20;99.90
31783;DHT22;18351;47.560;9.708;2023-08-06T15:05:19;16.30;99.90
31783;DHT22;18351;47.560;9.708;2023-08-06T15:07:45;16.30;99.90
31783;DHT22;18351;47.560;9.708;2023-08-06T15:10:11;16.50;99.90
31783;DHT22;18351;47.560;9.708;2023-08-06T15:12:36;16.60;99.90
31783;DHT22;18351;47.560;9.708;2023-08-06T15:15:05;16.80;99.90
31783;DHT22;18351;47.560;9.708;2023-08-06T15:17:31;17.10;99.90
31783;DHT22;18351;47.560;9.708;2023-08-06T15:19:57;17.40;99.90
31783;DHT22;18351;47.560;9.708;2023-08-06T15:22:24;17.60;99.90
31783;DHT22;18351;47.560;9.708;2023-08-06T15:24:49;17.80;99.90
31783;DHT22;18351;47.560;9.708;2023-08-06T15:27:15;18.10;99.90
31783;DHT22;18351;47.560;9.708;2023-08-06T15:29:41;18.10;99.90
31783;DHT22;18351;47.560;9.708;2023-08-06T15:32:07;18.10;99.90
31783;DHT22;18351;47.560;9.708;2023-08-06T15:34:33;17.90;99.90
31783;DHT22;18351;47.560;9.708;2023-08-06T15:36:59;17.80;99.90
31783;DHT22;18351;47.560;9.708;2023-08-06T15:39:24;17.70;99.90
31783;DHT22;18351;47.560;9.708;2023-08-06T15:41:50;17.70;99.90